createdAt,value
2024-01-12T00:02:43.015Z,97710.22
2024-01-12T00:05:40.051Z,97713.47
2024-01-12T00:08:38.711Z,97715.72
2024-01-12T00:11:35.651Z,97706.25
2024-01-12T00:14:32.601Z,97709.88
2024-01-12T00:17:29.542Z,97712.72
2024-01-12T00:20:26.486Z,97710.91
2024-01-12T00:23:23.442Z,97713.13
2024-01-12T00:26:20.298Z,97711.50
2024-01-12T00:29:17.269Z,97711.09
2024-01-12T00:32:14.308Z,97709.50
2024-01-12T00:35:11.218Z,97717.38
2024-01-12T00:38:08.145Z,97714.34
2024-01-12T00:41:05.239Z,97720.84
2024-01-12T00:44:02.642Z,97716.19
2024-01-12T00:46:59.692Z,97722.88
2024-01-12T00:49:56.555Z,97732.19
2024-01-12T00:52:53.545Z,97715.59
2024-01-12T00:55:50.489Z,97725.50
2024-01-12T00:58:47.352Z,97724.06
2024-01-12T01:01:44.213Z,97718.63
2024-01-12T01:04:41.153Z,97725.69
2024-01-12T01:07:38.023Z,97732.38
2024-01-12T01:10:34.883Z,97729.53
2024-01-12T01:13:33.079Z,97727.28
2024-01-12T01:16:29.939Z,97724.47
2024-01-12T01:19:26.971Z,97724.47
2024-01-12T01:22:23.948Z,97734.59
2024-01-12T01:25:20.841Z,97731.16
2024-01-12T01:28:17.998Z,97734.19
2024-01-12T01:31:14.863Z,97726.09
2024-01-12T01:34:11.848Z,97715.97
2024-01-12T01:37:08.821Z,97724.88
2024-01-12T01:40:08.716Z,97724.06
2024-01-12T01:43:12.254Z,97738.66
2024-01-12T01:46:09.184Z,97752.00
2024-01-12T01:49:06.740Z,97745.91
2024-01-12T01:52:04.934Z,97739.03
2024-01-12T01:55:01.924Z,97737.63
2024-01-12T01:58:00.937Z,97739.63
2024-01-12T02:00:58.725Z,97741.28
2024-01-12T02:03:55.711Z,97747.31
2024-01-12T02:06:53.153Z,97766.38
2024-01-12T02:09:50.765Z,97759.47
2024-01-12T02:12:47.658Z,97753.41
2024-01-12T02:15:44.596Z,97752.38
2024-01-12T02:18:41.696Z,97753.56
2024-01-12T02:21:38.707Z,97758.28
2024-01-12T02:24:35.572Z,97752.97
2024-01-12T02:27:32.574Z,97751.66
2024-01-12T02:30:30.495Z,97755.78
2024-01-12T02:33:27.845Z,97746.53
2024-01-12T02:36:28.380Z,97746.91
2024-01-12T02:39:25.265Z,97751.63
2024-01-12T02:42:22.167Z,97749.72
2024-01-12T02:45:19.017Z,97740.25
2024-01-12T02:48:15.986Z,97751.78
2024-01-12T02:51:12.917Z,97757.69
2024-01-12T02:54:09.806Z,97752.75
2024-01-12T02:57:07.042Z,97751.69
2024-01-12T03:00:06.813Z,97756.03
2024-01-12T03:03:05.453Z,97754.22
2024-01-12T03:06:03.939Z,97752.41
2024-01-12T03:09:01.063Z,97759.88
2024-01-12T03:11:58.018Z,97762.69
2024-01-12T03:14:55.212Z,97756.19
2024-01-12T03:17:52.267Z,97759.84
2024-01-12T03:20:49.297Z,97747.34
2024-01-12T03:23:46.459Z,97749.16
2024-01-12T03:26:43.396Z,97737.81
2024-01-12T03:29:40.316Z,97739.63
2024-01-12T03:32:37.292Z,97737.94
2024-01-12T03:35:36.226Z,97737.50
2024-01-12T03:38:33.158Z,97737.34
2024-01-12T03:41:30.056Z,97745.03
2024-01-12T03:44:27.012Z,97740.13
2024-01-12T03:47:23.950Z,97739.81
2024-01-12T03:50:21.623Z,97741.84
2024-01-12T03:53:18.573Z,97734.31
2024-01-12T03:56:15.538Z,97742.88
2024-01-12T03:59:12.784Z,97736.28
2024-01-12T04:02:09.650Z,97745.13
2024-01-12T04:05:06.832Z,97753.00
2024-01-12T04:08:04.411Z,97753.00
2024-01-12T04:11:01.652Z,97751.19
2024-01-12T04:13:58.534Z,97758.69
2024-01-12T04:16:55.441Z,97750.59
2024-01-12T04:19:52.359Z,97745.13
2024-01-12T04:22:49.982Z,97750.38
2024-01-12T04:25:46.900Z,97735.41
2024-01-12T04:28:43.819Z,97733.81
2024-01-12T04:31:41.671Z,97731.97
2024-01-12T04:34:38.794Z,97735.03
2024-01-12T04:37:35.799Z,97737.63
2024-01-12T04:40:32.653Z,97744.69
2024-01-12T04:43:29.538Z,97739.06
2024-01-12T04:46:26.517Z,97727.50
2024-01-12T04:49:23.428Z,97718.00
2024-01-12T04:52:20.316Z,97715.59
2024-01-12T04:55:17.160Z,97723.22
2024-01-12T04:58:14.061Z,97726.06
2024-01-12T05:01:10.942Z,97731.34
2024-01-12T05:04:07.859Z,97726.72
2024-01-12T05:07:05.006Z,97729.09
2024-01-12T05:10:04.287Z,97721.25
2024-01-12T05:13:02.056Z,97711.72
2024-01-12T05:15:59.010Z,97713.56
2024-01-12T05:18:56.097Z,97710.69
2024-01-12T05:21:53.121Z,97714.38
2024-01-12T05:24:50.096Z,97719.41
2024-01-12T05:27:46.995Z,97722.03
2024-01-12T05:30:43.986Z,97722.03
2024-01-12T05:33:41.474Z,97726.72
2024-01-12T05:36:38.509Z,97724.41
2024-01-12T05:39:35.377Z,97737.00
2024-01-12T05:42:32.262Z,97728.31
2024-01-12T05:45:29.105Z,97741.84
2024-01-12T05:48:26.150Z,97747.16
2024-01-12T05:51:23.180Z,97733.38
2024-01-12T05:54:20.054Z,97734.34
2024-01-12T05:57:16.901Z,97719.41
2024-01-12T06:00:14.472Z,97721.78
2024-01-12T06:03:11.641Z,97735.78
2024-01-12T06:06:08.711Z,97739.00
2024-01-12T06:09:06.368Z,97744.88
2024-01-12T06:12:03.432Z,97739.00
2024-01-12T06:15:01.335Z,97748.72
2024-01-12T06:18:00.802Z,97742.50
2024-01-12T06:20:57.902Z,97747.69
2024-01-12T06:23:54.835Z,97752.00
2024-01-12T06:26:51.931Z,97741.84
2024-01-12T06:29:48.845Z,97747.31
2024-01-12T06:32:45.763Z,97741.03
2024-01-12T06:35:42.726Z,97742.88
2024-01-12T06:38:39.898Z,97738.44
2024-01-12T06:41:44.110Z,97744.53
2024-01-12T06:44:42.208Z,97741.28
2024-01-12T06:47:39.643Z,97736.03
2024-01-12T06:50:36.884Z,97736.63
2024-01-12T06:53:33.803Z,97741.28
2024-01-12T06:56:31.964Z,97740.28
2024-01-12T06:59:29.372Z,97744.09
2024-01-12T07:02:26.377Z,97745.72
2024-01-12T07:05:23.354Z,97742.47
2024-01-12T07:08:20.237Z,97753.22
2024-01-12T07:11:17.225Z,97744.28
2024-01-12T07:14:17.322Z,97759.69
2024-01-12T07:17:14.290Z,97752.59
2024-01-12T07:20:12.402Z,97748.16
2024-01-12T07:23:09.369Z,97760.66
2024-01-12T07:26:06.472Z,97756.84
2024-01-12T07:29:04.137Z,97757.66
2024-01-12T07:32:01.154Z,97755.25
2024-01-12T07:34:58.172Z,97756.25
2024-01-12T07:37:55.124Z,97760.69
2024-01-12T07:40:52.075Z,97756.44
2024-01-12T07:43:48.949Z,97752.41
2024-01-12T07:46:46.514Z,97756.66
2024-01-12T07:49:43.433Z,97751.63
2024-01-12T07:52:40.348Z,97748.94
2024-01-12T07:55:37.344Z,97766.34
2024-01-12T07:58:34.275Z,97765.78
2024-01-12T08:01:31.155Z,97767.38
2024-01-12T08:04:28.119Z,97759.31
2024-01-12T08:07:25.282Z,97758.69
2024-01-12T08:10:22.131Z,97764.56
2024-01-12T08:13:19.287Z,97761.91
2024-01-12T08:16:16.232Z,97770.22
2024-01-12T08:19:13.169Z,97768.00
2024-01-12T08:22:10.069Z,97767.38
2024-01-12T08:25:07.963Z,97762.53
2024-01-12T08:28:05.265Z,97764.38
2024-01-12T08:31:04.702Z,97772.66
2024-01-12T08:34:02.374Z,97765.38
2024-01-12T08:36:59.908Z,97769.63
2024-01-12T08:39:56.836Z,97758.47
2024-01-12T08:42:54.717Z,97758.25
2024-01-12T08:45:51.593Z,97763.50
2024-01-12T08:48:50.536Z,97772.63
2024-01-12T08:51:52.363Z,97779.13
2024-01-12T08:54:49.280Z,97776.66
2024-01-12T08:57:46.903Z,97778.88
2024-01-12T09:00:43.907Z,97788.19
2024-01-12T09:03:41.163Z,97778.03
2024-01-12T09:06:38.306Z,97784.94
2024-01-12T09:09:35.791Z,97789.66
2024-01-12T09:12:32.692Z,97785.19
2024-01-12T09:15:29.685Z,97784.56
2024-01-12T09:18:26.786Z,97780.66
2024-01-12T09:21:25.510Z,97786.09
2024-01-12T09:24:22.493Z,97769.44
2024-01-12T09:27:19.587Z,97772.91
2024-01-12T09:30:17.386Z,97763.47
2024-01-12T09:33:15.784Z,97759.94
2024-01-12T09:36:12.955Z,97764.88
2024-01-12T09:39:15.791Z,97758.78
2024-01-12T09:42:18.934Z,97756.34
2024-01-12T09:45:22.375Z,97765.53
2024-01-12T09:48:21.390Z,97757.91
2024-01-12T09:51:22.476Z,97751.84
2024-01-12T09:54:19.587Z,97752.50
2024-01-12T09:57:18.224Z,97752.75
2024-01-12T10:00:16.429Z,97756.88
2024-01-12T10:03:14.688Z,97748.41
2024-01-12T10:06:12.808Z,97745.09
2024-01-12T10:09:10.804Z,97744.69
2024-01-12T10:12:08.912Z,97751.53
2024-01-12T10:15:11.826Z,97739.19
2024-01-12T10:18:08.926Z,97726.63
2024-01-12T10:21:06.019Z,97734.09
2024-01-12T10:24:06.926Z,97745.38
2024-01-12T10:27:04.541Z,97744.94
2024-01-12T10:30:01.835Z,97734.72
2024-01-12T10:32:59.011Z,97745.19
2024-01-12T10:36:16.504Z,97753.34
2024-01-12T10:39:14.664Z,97750.94
2024-01-12T10:42:13.045Z,97747.13
2024-01-12T10:45:13.185Z,97744.81
2024-01-12T10:48:13.269Z,97736.56
2024-01-12T10:51:12.743Z,97740.31
2024-01-12T10:54:15.621Z,97726.94
2024-01-12T10:57:13.715Z,97721.91
2024-01-12T11:00:12.262Z,97739.03
2024-01-12T11:03:11.945Z,97726.66
2024-01-12T11:06:12.282Z,97732.72
2024-01-12T11:09:11.176Z,97713.06
2024-01-12T11:12:10.443Z,97721.66
2024-01-12T11:15:09.021Z,97725.19
2024-01-12T11:18:08.653Z,97712.16
2024-01-12T11:21:06.178Z,97709.97
2024-01-12T11:24:03.273Z,97712.00
2024-01-12T11:27:00.848Z,97716.09
2024-01-12T11:30:05.530Z,97707.41
2024-01-12T11:33:07.296Z,97704.06
2024-01-12T11:36:06.447Z,97690.22
2024-01-12T11:39:03.680Z,97699.41
2024-01-12T11:42:21.768Z,97689.66
2024-01-12T11:45:19.803Z,97691.66
2024-01-12T11:48:17.082Z,97691.34
2024-01-12T11:51:25.280Z,97686.81
2024-01-12T11:54:22.198Z,97700.91
2024-01-12T11:57:21.729Z,97680.84
2024-01-12T12:00:19.445Z,97679.03
2024-01-12T12:03:16.758Z,97662.09
2024-01-12T12:06:14.543Z,97653.06
2024-01-12T12:09:11.561Z,97654.25
2024-01-12T12:12:10.272Z,97651.59
2024-01-12T12:15:14.081Z,97637.72
2024-01-12T12:18:11.911Z,97627.66
2024-01-12T12:21:09.864Z,97631.06
2024-01-12T12:24:07.179Z,97632.84
2024-01-12T12:27:06.291Z,97632.78
2024-01-12T12:30:05.447Z,97628.97
2024-01-12T12:33:04.847Z,97623.75
2024-01-12T12:36:09.541Z,97627.84
2024-01-12T12:39:07.596Z,97628.97
2024-01-12T12:42:05.689Z,97635.75
2024-01-12T12:45:03.055Z,97641.53
2024-01-12T12:48:00.392Z,97638.16
2024-01-12T12:50:57.546Z,97618.94
2024-01-12T12:53:55.107Z,97608.72
2024-01-12T12:56:53.306Z,97603.03
2024-01-12T12:59:50.422Z,97606.56
2024-01-12T13:02:47.425Z,97611.13
2024-01-12T13:05:44.438Z,97609.84
2024-01-12T13:08:41.467Z,97606.03
2024-01-12T13:11:38.498Z,97601.28
2024-01-12T13:14:35.474Z,97601.06
2024-01-12T13:17:32.487Z,97594.81
2024-01-12T13:20:30.560Z,97598.31
2024-01-12T13:23:27.738Z,97599.25
2024-01-12T13:26:24.682Z,97595.09
2024-01-12T13:29:21.733Z,97591.88
2024-01-12T13:32:19.069Z,97596.03
2024-01-12T13:35:16.340Z,97596.91
2024-01-12T13:38:13.308Z,97600.56
2024-01-12T13:41:10.754Z,97605.84
2024-01-12T13:44:07.802Z,97605.06
2024-01-12T13:47:05.605Z,97596.97
2024-01-12T13:50:02.626Z,97592.78
2024-01-12T13:53:03.262Z,97593.81
2024-01-12T13:56:00.144Z,97595.16
2024-01-12T13:58:58.620Z,97601.75
2024-01-12T14:01:56.087Z,97604.16
2024-01-12T14:05:04.741Z,97602.34
2024-01-12T14:08:13.561Z,97590.19
2024-01-12T14:11:12.416Z,97595.63
2024-01-12T14:14:09.307Z,97584.47
2024-01-12T14:17:06.244Z,97594.25
2024-01-12T14:20:04.722Z,97590.31
2024-01-12T14:23:01.817Z,97581.06
2024-01-12T14:25:58.732Z,97574.28
2024-01-12T14:28:56.571Z,97566.69
2024-01-12T14:31:53.480Z,97580.09
2024-01-12T14:34:50.714Z,97577.13
2024-01-12T14:37:48.241Z,97574.25
2024-01-12T14:40:46.051Z,97578.97
2024-01-12T14:43:43.054Z,97578.34
2024-01-12T14:46:40.953Z,97577.59
2024-01-12T14:49:41.490Z,97586.03
2024-01-12T14:52:39.174Z,97569.03
2024-01-12T14:55:36.298Z,97575.69
2024-01-12T14:58:33.172Z,97575.13
2024-01-12T15:01:31.580Z,97578.56
2024-01-12T15:04:28.471Z,97577.09
2024-01-12T15:07:25.574Z,97580.69
2024-01-12T15:10:25.432Z,97571.41
2024-01-12T15:13:22.367Z,97579.16
2024-01-12T15:16:19.315Z,97579.34
2024-01-12T15:19:16.684Z,97575.09
2024-01-12T15:22:13.631Z,97582.97
2024-01-12T15:25:10.552Z,97579.78
2024-01-12T15:28:07.427Z,97598.69
2024-01-12T15:31:05.269Z,97589.50
2024-01-12T15:34:02.472Z,97588.19
2024-01-12T15:36:59.357Z,97586.09
2024-01-12T15:39:56.908Z,97598.03
2024-01-12T15:42:53.895Z,97590.06
2024-01-12T15:45:50.822Z,97595.53
2024-01-12T15:48:48.005Z,97582.78
2024-01-12T15:51:44.979Z,97598.44
2024-01-12T15:54:44.969Z,97589.38
2024-01-12T15:57:42.213Z,97593.38
2024-01-12T16:00:42.475Z,97591.38
2024-01-12T16:03:40.288Z,97587.75
2024-01-12T16:06:37.520Z,97581.47
2024-01-12T16:09:38.111Z,97588.25
2024-01-12T16:12:35.401Z,97591.38
2024-01-12T16:15:32.373Z,97595.00
2024-01-12T16:18:29.417Z,97599.94
2024-01-12T16:21:35.879Z,97611.84
2024-01-12T16:24:32.865Z,97606.63
2024-01-12T16:27:30.172Z,97610.13
2024-01-12T16:30:27.082Z,97607.28
2024-01-12T16:33:24.365Z,97599.94
2024-01-12T16:36:21.321Z,97597.91
2024-01-12T16:39:18.951Z,97604.31
2024-01-12T16:42:15.971Z,97610.69
2024-01-12T16:45:12.937Z,97609.38
2024-01-12T16:48:10.263Z,97596.28
2024-01-12T16:51:07.254Z,97597.19
2024-01-12T16:54:04.274Z,97598.09
2024-01-12T16:57:01.177Z,97600.31
2024-01-12T16:59:58.189Z,97605.09
2024-01-12T17:02:55.235Z,97598.47
2024-01-12T17:05:52.399Z,97605.03
2024-01-12T17:08:49.454Z,97613.34
2024-01-12T17:11:47.842Z,97605.03
2024-01-12T17:14:44.733Z,97601.72
2024-01-12T17:17:41.690Z,97596.03
2024-01-12T17:20:38.754Z,97592.03
2024-01-12T17:23:35.724Z,97578.44
2024-01-12T17:26:34.807Z,97590.59
2024-01-12T17:29:32.203Z,97599.81
2024-01-12T17:32:29.693Z,97605.91
2024-01-12T17:35:26.867Z,97609.31
2024-01-12T17:38:23.861Z,97598.31
2024-01-12T17:41:23.973Z,97591.91
2024-01-12T17:44:21.488Z,97591.34
2024-01-12T17:47:20.585Z,97594.69
2024-01-12T17:50:17.507Z,97594.03
2024-01-12T17:53:14.379Z,97590.34
2024-01-12T17:56:12.389Z,97580.09
2024-01-12T17:59:10.567Z,97579.94
2024-01-12T18:02:07.944Z,97585.50
2024-01-12T18:05:05.316Z,97598.91
2024-01-12T18:08:02.154Z,97603.84
2024-01-12T18:10:59.219Z,97597.66
2024-01-12T18:13:56.656Z,97590.31
2024-01-12T18:16:53.657Z,97590.06
2024-01-12T18:19:51.787Z,97597.09
2024-01-12T18:22:48.828Z,97585.31
2024-01-12T18:25:48.660Z,97576.50
2024-01-12T18:28:45.532Z,97579.78
2024-01-12T18:31:42.790Z,97586.53
2024-01-12T18:34:39.799Z,97576.25
2024-01-12T18:37:36.719Z,97585.06
2024-01-12T18:40:33.617Z,97578.44
2024-01-12T18:43:30.473Z,97576.69
2024-01-12T18:46:27.339Z,97577.94
2024-01-12T18:49:24.236Z,97582.47
2024-01-12T18:52:21.242Z,97577.78
2024-01-12T18:55:18.112Z,97578.63
2024-01-12T18:58:14.984Z,97579.78
2024-01-12T19:01:11.876Z,97570.88
2024-01-12T19:04:10.474Z,97568.84
2024-01-12T19:07:07.644Z,97574.88
2024-01-12T19:10:04.944Z,97573.81
2024-01-12T19:13:01.854Z,97572.09
2024-01-12T19:16:01.096Z,97566.53
2024-01-12T19:18:58.188Z,97576.47
2024-01-12T19:21:55.250Z,97568.25
2024-01-12T19:24:52.126Z,97563.28
2024-01-12T19:27:49.023Z,97565.69
2024-01-12T19:30:45.915Z,97568.34
2024-01-12T19:33:42.924Z,97557.75
2024-01-12T19:36:44.245Z,97559.06
2024-01-12T19:39:41.325Z,97556.19
2024-01-12T19:42:38.197Z,97552.75
2024-01-12T19:45:35.810Z,97546.25
2024-01-12T19:48:32.858Z,97543.06
2024-01-12T19:51:29.842Z,97541.16
2024-01-12T19:54:26.698Z,97534.03
2024-01-12T19:57:23.585Z,97543.06
2024-01-12T20:00:20.591Z,97546.34
2024-01-12T20:03:17.597Z,97557.22
2024-01-12T20:06:22.447Z,97557.59
2024-01-12T20:09:19.512Z,97564.63
2024-01-12T20:12:16.440Z,97557.72
2024-01-12T20:15:13.863Z,97560.09
2024-01-12T20:18:10.913Z,97564.25
2024-01-12T20:21:10.858Z,97565.84
2024-01-12T20:24:07.932Z,97566.88
2024-01-12T20:27:04.998Z,97553.00
2024-01-12T20:30:01.973Z,97557.72
2024-01-12T20:32:59.130Z,97559.13
2024-01-12T20:35:56.173Z,97552.91
2024-01-12T20:38:53.049Z,97547.16
2024-01-12T20:41:49.954Z,97549.06
2024-01-12T20:44:46.883Z,97546.84
2024-01-12T20:47:45.464Z,97553.06
2024-01-12T20:50:42.397Z,97543.63
2024-01-12T20:53:39.325Z,97537.13
2024-01-12T20:56:37.024Z,97532.06
2024-01-12T20:59:34.003Z,97526.28
2024-01-12T21:02:31.075Z,97531.97
2024-01-12T21:05:28.089Z,97542.69
2024-01-12T21:08:26.635Z,97541.03
2024-01-12T21:11:23.570Z,97533.41
2024-01-12T21:14:21.402Z,97530.97
2024-01-12T21:17:18.323Z,97521.31
2024-01-12T21:20:15.255Z,97528.53
2024-01-12T21:23:12.458Z,97520.72
2024-01-12T21:26:09.300Z,97521.19
2024-01-12T21:29:06.474Z,97524.13
2024-01-12T21:32:03.412Z,97531.06
2024-01-12T21:35:00.469Z,97516.88
2024-01-12T21:37:57.485Z,97520.03
2024-01-12T21:40:54.383Z,97525.91
2024-01-12T21:43:51.261Z,97530.53
2024-01-12T21:46:48.152Z,97540.97
2024-01-12T21:49:45.120Z,97548.22
2024-01-12T21:52:42.077Z,97538.56
2024-01-12T21:55:39.867Z,97536.84
2024-01-12T21:58:36.866Z,97542.72
2024-01-12T22:01:33.748Z,97533.81
2024-01-12T22:04:30.582Z,97541.16
2024-01-12T22:07:27.494Z,97520.19
2024-01-12T22:10:24.392Z,97521.22
2024-01-12T22:13:21.239Z,97511.66
2024-01-12T22:16:18.114Z,97501.22
2024-01-12T22:19:15.171Z,97494.31
2024-01-12T22:22:12.169Z,97485.53
2024-01-12T22:25:10.152Z,97483.25
2024-01-12T22:28:07.504Z,97486.47
2024-01-12T22:31:06.349Z,97474.09
2024-01-12T22:34:03.418Z,97462.19
2024-01-12T22:37:00.385Z,97460.44
2024-01-12T22:39:57.247Z,97468.94
2024-01-12T22:42:54.099Z,97458.69
2024-01-12T22:45:51.018Z,97456.00
2024-01-12T22:48:48.117Z,97460.38
2024-01-12T22:51:45.065Z,97454.72
2024-01-12T22:54:41.923Z,97454.13
2024-01-12T22:57:38.799Z,97441.22
2024-01-12T23:00:36.958Z,97444.19
2024-01-12T23:03:34.070Z,97435.06
2024-01-12T23:06:31.223Z,97441.16
2024-01-12T23:09:28.090Z,97441.97
2024-01-12T23:12:24.941Z,97444.94
2024-01-12T23:15:21.796Z,97442.44
2024-01-12T23:18:18.779Z,97440.69
2024-01-12T23:21:15.782Z,97432.25
2024-01-12T23:24:12.765Z,97430.97
2024-01-12T23:27:10.049Z,97423.91
2024-01-12T23:30:08.679Z,97420.84
2024-01-12T23:33:06.168Z,97408.97
2024-01-12T23:36:03.823Z,97408.75
2024-01-12T23:39:00.736Z,97414.16
2024-01-12T23:41:57.686Z,97413.94
2024-01-12T23:44:54.606Z,97413.81
2024-01-12T23:47:52.192Z,97413.84
2024-01-12T23:50:49.189Z,97417.75
2024-01-12T23:53:46.110Z,97407.81
2024-01-12T23:56:43.046Z,97400.97
2024-01-12T23:59:39.967Z,97409.53
